Data for 09/16/2017

Time Sea-Level Adjusted Pressure Absolute Pressure Temperature Relative Humidity Dew Point   
(mb) (inHg) (mb) (inHg) (C) (F) (%) (C) (F)
00:05 1020 30.12 849 25.07 1 33.7 91 -0.3 31.4
00:10 1020 30.12 849 25.07 1 33.7 91 -0.3 31.5
00:15 1020 30.12 849 25.07 1.1 33.9 91 -0.2 31.7
00:20 1020 30.12 849 25.07 1.2 34.1 91 -0.2 31.7
00:25 1020 30.12 849 25.07 1.2 34.2 91 -0.2 31.7
00:30 1020 30.12 849 25.07 1.2 34.2 90 -0.2 31.6
00:35 1020 30.12 849 25.07 1 33.8 90 -0.4 31.3
00:40 1020 30.12 849 25.07 0.8 33.5 91 -0.5 31.2
00:45 1020 30.12 849 25.07 0.8 33.4 91 -0.5 31.2
00:50 1020 30.12 849 25.07 0.9 33.6 92 -0.3 31.4
00:55 1020 30.12 849 25.07 1 33.7 91 -0.3 31.4
01:00 1020 30.12 849 25.07 1 33.8 91 -0.3 31.4
01:05 1020 30.12 849 25.07 0.9 33.5 91 -0.4 31.2
01:10 1020 30.12 849 25.07 0.8 33.5 91 -0.5 31.2
01:15 1019 30.09 849 25.07 0.7 33.3 91 -0.5 31
01:20 1019 30.09 849 25.07 0.6 33.1 91 -0.7 30.7
01:25 1019 30.09 849 25.07 0.3 32.5 92 -0.9 30.4
01:30 1019 30.09 849 25.07 0.1 32.2 93 -0.9 30.3
01:35 1020 30.12 849 25.07 0 32 93 -1 30.3
01:40 1019 30.09 849 25.07 0.1 32.2 94 -0.8 30.5
01:45 1020 30.12 849 25.07 0.2 32.4 94 -0.7 30.7
01:50 1020 30.12 849 25.07 0.3 32.5 94 -0.6 30.9
01:55 1020 30.12 849 25.07 0.3 32.5 94 -0.6 30.9
02:00 1020 30.12 849 25.07 0.3 32.6 94 -0.6 31
02:05 1020 30.12 849 25.07 0.4 32.8 94 -0.5 31.1
02:10 1020 30.12 849 25.07 0.5 32.9 94 -0.5 31.2
02:15 1020 30.12 849 25.07 0.5 32.8 94 -0.5 31.2
02:20 1020 30.12 849 25.07 0.5 32.8 93 -0.5 31.1
02:25 1020 30.12 849 25.07 0.5 32.8 93 -0.5 31.1
02:30 1020 30.12 849 25.07 0.5 32.9 94 -0.4 31.2
02:35 1020 30.12 849 25.07 0.5 32.9 93 -0.5 31.2
02:40 1020 30.12 849 25.07 0.5 32.8 93 -0.5 31.1
02:45 1020 30.12 849 25.07 0.5 32.9 93 -0.5 31.2
02:50 1020 30.12 849 25.07 0.5 32.9 94 -0.4 31.2
02:55 1020 30.12 849 25.07 0.5 32.9 93 -0.5 31.2
03:00 1020 30.12 849 25.07 0.5 32.9 93 -0.5 31.2
03:05 1020 30.12 849 25.07 0.5 33 93 -0.4 31.3
03:10 1020 30.12 849 25.07 0.5 33 93 -0.4 31.3
03:15 1020 30.12 849 25.07 0.6 33 93 -0.4 31.3
03:20 1020 30.12 849 25.07 0.6 33.1 93 -0.3 31.4
03:25 1020 30.12 849 25.07 0.6 33.1 93 -0.3 31.4
03:30 1020 30.12 849 25.07 0.6 33.1 94 -0.3 31.4
03:35 1020 30.12 849 25.07 0.6 33 93 -0.4 31.3
03:40 1020 30.12 849 25.07 0.5 33 93 -0.4 31.3
03:45 1020 30.12 849 25.07 0.6 33.1 93 -0.4 31.4
03:50 1020 30.12 849 25.07 0.7 33.3 93 -0.3 31.5
03:55 1020 30.12 849 25.07 0.8 33.5 93 -0.2 31.6
04:00 1020 30.12 849 25.07 0.9 33.7 93 -0.1 31.8
04:05 1020 30.12 849 25.07 0.9 33.7 93 -0.1 31.8
04:10 1020 30.12 849 25.07 0.9 33.5 92 -0.2 31.6
04:15 1020 30.12 849 25.07 0.8 33.4 93 -0.3 31.5
04:20 1020 30.12 849 25.07 0.8 33.4 93 -0.3 31.5
04:25 1020 30.12 849 25.07 0.8 33.4 93 -0.3 31.5
04:30 1020 30.12 849 25.07 0.8 33.4 93 -0.3 31.5
04:35 1020 30.12 849 25.07 0.8 33.4 93 -0.3 31.5
04:40 1020 30.12 849 25.07 0.8 33.4 93 -0.2 31.6
04:45 1020 30.12 849 25.07 0.8 33.5 93 -0.2 31.6
04:50 1020 30.12 849 25.07 0.8 33.5 93 -0.2 31.6
04:55 1020 30.12 849 25.07 0.7 33.3 93 -0.3 31.4
05:00 1020 30.12 849 25.07 0.7 33.2 93 -0.3 31.5
05:05 1020 30.12 849 25.07 0.8 33.4 93 -0.2 31.6
05:10 1020 30.12 849 25.07 0.8 33.4 93 -0.2 31.7
05:15 1020 30.12 849 25.07 0.9 33.6 93 -0.1 31.8
05:20 1020 30.12 849 25.07 0.9 33.6 93 -0.1 31.9
05:25 1020 30.12 849 25.07 0.8 33.4 93 -0.2 31.7
05:30 1020 30.12 849 25.07 0.9 33.6 93 -0 31.9
05:35 1020 30.12 850 25.1 0.9 33.7 93 -0.1 31.8
05:40 1020 30.12 850 25.1 0.7 33.3 93 -0.3 31.5
05:45 1020 30.12 850 25.1 0.7 33.3 94 -0.2 31.6
05:50 1020 30.12 850 25.1 0.9 33.5 93 -0.1 31.8
05:55 1021 30.15 850 25.1 0.8 33.5 94 -0.1 31.9
06:00 1021 30.15 850 25.1 0.9 33.7 93 -0 32
06:05 1021 30.15 850 25.1 0.8 33.5 93 -0.2 31.7
06:10 1021 30.15 850 25.1 0.8 33.4 93 -0.2 31.7
06:15 1021 30.15 850 25.1 0.8 33.5 93 -0.1 31.8
06:20 1021 30.15 850 25.1 0.8 33.5 93 -0.1 31.8
06:25 1021 30.15 850 25.1 0.8 33.5 93 -0.1 31.8
06:30 1021 30.15 850 25.1 0.8 33.5 93 -0.1 31.8
06:35 1021 30.15 850 25.1 0.8 33.4 93 -0.2 31.7
06:40 1021 30.15 850 25.1 0.8 33.4 93 -0.2 31.7
06:45 1021 30.15 850 25.1 0.8 33.4 93 -0.2 31.6
06:50 1021 30.15 850 25.1 0.7 33.3 93 -0.2 31.6
06:55 1021 30.15 850 25.1 0.7 33.3 93 -0.3 31.5
07:00 1021 30.15 850 25.1 0.7 33.2 93 -0.3 31.5
07:05 1021 30.15 850 25.1 0.7 33.2 93 -0.3 31.5
07:10 1021 30.15 850 25.1 0.6 33.2 93 -0.3 31.4
07:15 1021 30.15 850 25.1 0.6 33.1 93 -0.4 31.3
07:20 1021 30.15 850 25.1 0.6 33.1 93 -0.4 31.3
07:25 1021 30.15 851 25.13 0.6 33.1 93 -0.4 31.3
07:30 1021 30.15 851 25.13 0.6 33.1 93 -0.4 31.3
07:35 1021 30.15 851 25.13 0.6 33.2 93 -0.4 31.4
07:40 1021 30.15 851 25.13 0.6 33.1 93 -0.3 31.4
07:45 1021 30.15 851 25.13 0.6 33.1 93 -0.4 31.3
07:50 1022 30.18 851 25.13 0.6 33.1 93 -0.4 31.3
07:55 1022 30.18 851 25.13 0.7 33.2 93 -0.3 31.4
08:00 1022 30.18 851 25.13 0.7 33.3 93 -0.3 31.5
08:05 1022 30.18 851 25.13 0.8 33.4 93 -0.3 31.5
08:10 1022 30.18 851 25.13 0.8 33.5 93 -0.2 31.6
08:15 1022 30.18 851 25.13 0.9 33.6 93 -0.1 31.8
08:20 1022 30.18 851 25.13 0.9 33.7 93 -0.1 31.8
08:25 1022 30.18 851 25.13 1 33.7 93 -0.1 31.9
08:30 1022 30.18 851 25.13 1 33.8 92 -0.1 31.8
08:35 1022 30.18 851 25.13 1 33.8 93 -0.1 31.8
08:40 1022 30.18 851 25.13 1 33.9 92 -0.1 31.8
08:45 1022 30.18 851 25.13 1 33.9 92 -0.1 31.8
08:50 1022 30.18 851 25.13 1 33.9 92 -0.1 31.8
08:55 1022 30.18 852 25.16 1.1 34 92 -0.1 31.9
09:00 1022 30.18 852 25.16 1.2 34.1 92 -0 32
09:05 1022 30.18 852 25.16 1.2 34.2 92 -0 31.9
09:10 1022 30.18 852 25.16 1.2 34.2 91 -0.1 31.8
09:15 1022 30.18 852 25.16 1.2 34.1 91 -0.1 31.8
09:20 1022 30.18 852 25.16 1.3 34.4 91 0 32.1
09:25 1023 30.21 852 25.16 1.5 34.6 91 0.1 32.3
09:30 1023 30.21 852 25.16 1.5 34.7 91 0.2 32.3
09:35 1023 30.21 852 25.16 1.6 35 90 0.2 32.4
09:40 1023 30.21 852 25.16 1.7 35.1 90 0.3 32.5
09:45 1023 30.21 852 25.16 1.8 35.2 90 0.2 32.4
09:50 1023 30.21 852 25.16 1.7 35.1 90 0.3 32.5
09:55 1023 30.21 852 25.16 1.8 35.3 90 0.4 32.7
10:00 1023 30.21 852 25.16 2 35.5 90 0.4 32.7
10:05 1023 30.21 852 25.16 2 35.6 89 0.4 32.8
10:10 1023 30.21 852 25.16 2.1 35.7 89 0.5 32.8
10:15 1023 30.21 852 25.16 2.2 36 89 0.6 33.1
10:20 1023 30.21 852 25.16 2.4 36.3 89 0.7 33.3
10:25 1023 30.21 852 25.16 2.6 36.6 88 0.8 33.4
10:30 1023 30.21 852 25.16 2.6 36.8 88 0.8 33.5
10:35 1023 30.21 852 25.16 2.8 37.1 87 0.8 33.5
10:40 1023 30.21 852 25.16 2.9 37.2 87 0.8 33.5
10:45 1023 30.21 852 25.16 3 37.5 87 1 33.8
10:50 1023 30.21 852 25.16 3.2 37.8 85 1 33.8
10:55 1023 30.21 852 25.16 3.2 37.8 85 0.9 33.7
11:00 1023 30.21 852 25.16 3.3 38 86 1.1 34.1
11:05 1023 30.21 852 25.16 3.7 38.6 82 0.9 33.6
11:10 1023 30.21 852 25.16 3.7 38.7 83 1.1 33.9
11:15 1023 30.21 852 25.16 3.8 38.8 82 1 33.7
11:20 1023 30.21 852 25.16 3.8 38.9 81 0.8 33.4
11:25 1023 30.21 852 25.16 3.9 39 81 1 33.8
11:30 1023 30.21 852 25.16 3.8 38.8 83 1.2 34.1
11:35 1023 30.21 852 25.16 3.5 38.3 83 0.9 33.5
11:40 1023 30.21 852 25.16 3.2 37.8 82 0.4 32.8
11:45 1023 30.21 852 25.16 3.4 38.2 84 0.9 33.7
11:50 1023 30.21 852 25.16 3.9 39.1 80 0.7 33.3
11:55 1023 30.21 852 25.16 4.1 39.4 80 0.9 33.6
12:00 1023 30.21 852 25.16 4.1 39.3 82 1.2 34.2
12:05 1023 30.21 852 25.16 4.1 39.4 80 0.9 33.6
12:10 1023 30.21 852 25.16 4.2 39.5 81 1.2 34.1
12:15 1023 30.21 852 25.16 4.4 40 77 0.7 33.2
12:20 1023 30.21 852 25.16 3.8 38.9 80 0.7 33.2
12:25 1023 30.21 852 25.16 4 39.2 81 1.1 33.9
12:30 1023 30.21 852 25.16 4.1 39.3 80 0.8 33.5
12:35 1023 30.21 852 25.16 4.4 39.8 78 0.8 33.5
12:40 1023 30.21 852 25.16 4.5 40.1 78 1 33.8
12:45 1023 30.21 852 25.16 5 40.9 75 1 33.7
12:50 1023 30.21 852 25.16 5.3 41.6 73 0.9 33.5
12:55 1023 30.21 852 25.16 5.5 41.9 72 0.9 33.7
13:00 1023 30.21 852 25.16 5.3 41.6 74 1.1 33.9
13:05 1023 30.21 852 25.16 5.8 42.4 70 0.8 33.5
13:10 1023 30.21 852 25.16 5.9 42.7 71 1 33.9
13:15 1023 30.21 852 25.16 6.3 43.4 67 0.6 33.2
13:20 1023 30.21 852 25.16 6.7 44 67 1 33.8
13:25 1023 30.21 852 25.16 7 44.5 65 0.8 33.4
13:30 1023 30.21 852 25.16 7 44.6 62 0.3 32.5
13:35 1023 30.21 852 25.16 6.9 44.5 61 -0 32
13:40 1023 30.21 852 25.16 7 44.6 65 0.8 33.5
13:45 1023 30.21 852 25.16 6.6 44 67 1 33.9
13:50 1023 30.21 852 25.16 6.6 43.9 64 0.3 32.5
13:55 1023 30.21 852 25.16 7.1 44.7 60 -0.3 31.5
14:00 1023 30.21 852 25.16 7.1 44.7 60 -0.2 31.7
14:05 1023 30.21 852 25.16 7.3 45.2 58 -0.4 31.4
14:10 1023 30.21 852 25.16 7 44.7 63 0.5 32.8
14:15 1023 30.21 852 25.16 6.9 44.4 62 0.2 32.4
14:20 1023 30.21 852 25.16 6.8 44.3 63 0.2 32.3
14:25 1023 30.21 852 25.16 6.4 43.6 66 0.5 33
14:30 1023 30.21 852 25.16 6.5 43.7 62 -0.2 31.6
14:35 1023 30.21 852 25.16 7.1 44.8 60 -0.1 31.9
14:40 1023 30.21 852 25.16 7.5 45.6 58 -0.1 31.9
14:45 1023 30.21 852 25.16 7.5 45.6 59 0.1 32.3
14:50 1023 30.21 852 25.16 7.4 45.3 59 0 32.1
14:55 1023 30.21 852 25.16 8 46.4 55 -0.5 31
15:00 1023 30.21 852 25.16 8 46.3 55 -0.5 31.1
15:05 1023 30.21 852 25.16 8 46.4 56 -0.2 31.6
15:10 1023 30.21 852 25.16 8.2 46.7 55 -0.2 31.6
15:15 1023 30.21 852 25.16 7.9 46.3 55 -0.5 31.1
15:20 1023 30.21 852 25.16 8.4 47.2 53 -0.7 30.8
15:25 1023 30.21 852 25.16 7.8 46 56 -0.6 31
15:30 1023 30.21 852 25.16 7.3 45.2 58 -0.4 31.2
15:35 1023 30.21 852 25.16 7.6 45.7 56 -0.5 31.1
15:40 1023 30.21 852 25.16 8 46.4 55 -0.6 30.9
15:45 1023 30.21 852 25.16 8.4 47 53 -0.5 31
15:50 1023 30.21 852 25.16 9 48.1 52 -0.3 31.5
15:55 1023 30.21 852 25.16 8.8 47.9 51 -0.7 30.8
16:00 1023 30.21 852 25.16 8.4 47.1 53 -0.6 31
16:05 1023 30.21 852 25.16 8 46.4 56 -0.2 31.6
16:10 1023 30.21 852 25.16 7.7 45.9 56 -0.6 30.9
16:15 1023 30.21 852 25.16 7.6 45.6 55 -1 30.2
16:20 1023 30.21 852 25.16 7.9 46.2 54 -0.9 30.3
16:25 1023 30.21 852 25.16 8.3 46.9 54 -0.6 31
16:30 1023 30.21 852 25.16 8.1 46.6 54 -0.6 31
16:35 1023 30.21 852 25.16 8.2 46.7 57 0.2 32.3
16:40 1023 30.21 852 25.16 8.1 46.6 55 -0.3 31.5
16:45 1023 30.21 852 25.16 8.1 46.6 54 -0.6 30.9
16:50 1023 30.21 852 25.16 8 46.3 55 -0.6 30.9
16:55 1023 30.21 852 25.16 8 46.3 56 -0.3 31.5
17:00 1023 30.21 852 25.16 7.9 46.2 56 -0.4 31.3
17:05 1023 30.21 852 25.16 8 46.4 55 -0.5 31.1
17:10 1023 30.21 852 25.16 7.7 45.9 56 -0.6 31
17:15 1023 30.21 852 25.16 7.6 45.7 55 -0.9 30.3
17:20 1023 30.21 852 25.16 7.7 45.8 54 -1 30.2
17:25 1023 30.21 852 25.16 7.7 45.8 56 -0.4 31.2
17:30 1023 30.21 852 25.16 7.7 45.8 55 -0.7 30.7
17:35 1023 30.21 852 25.16 7.6 45.7 56 -0.7 30.8
17:40 1023 30.21 852 25.16 7.6 45.7 55 -0.9 30.3
17:45 1023 30.21 852 25.16 7.5 45.5 55 -0.9 30.4
17:50 1023 30.21 852 25.16 7.4 45.3 56 -0.8 30.6
17:55 1023 30.21 852 25.16 7.3 45.2 56 -0.9 30.4
18:00 1023 30.21 852 25.16 7.2 45 57 -0.7 30.7
18:05 1023 30.21 852 25.16 7.1 44.8 59 -0.3 31.5
18:10 1023 30.21 852 25.16 7 44.6 62 0.3 32.6
18:15 1023 30.21 852 25.16 6.9 44.4 62 0 32.1
18:20 1023 30.21 852 25.16 6.8 44.2 63 0.2 32.3
18:25 1023 30.21 852 25.16 6.7 44.1 62 -0 31.9
18:30 1023 30.21 852 25.16 6.5 43.7 62 -0.1 31.7
18:35 1023 30.21 852 25.16 6.4 43.5 65 0.2 32.4
18:40 1023 30.21 852 25.16 6.4 43.5 64 0.1 32.2
18:45 1023 30.21 852 25.16 6.3 43.3 65 0.2 32.4
18:50 1023 30.21 852 25.16 6.2 43.2 64 -0 31.9
18:55 1023 30.21 852 25.16 6.2 43.1 66 0.4 32.6
19:00 1023 30.21 852 25.16 6.1 43 67 0.4 32.7
19:05 1023 30.21 852 25.16 6 42.8 69 0.8 33.4
19:10 1023 30.21 852 25.16 5.8 42.5 71 1 33.8
19:15 1023 30.21 852 25.16 5.6 42.2 69 0.4 32.7
19:20 1023 30.21 852 25.16 5.7 42.3 72 1.2 34.1
19:25 1023 30.21 852 25.16 5.7 42.2 76 1.7 35
19:30 1023 30.21 852 25.16 5.5 41.9 76 1.6 35
19:35 1023 30.21 852 25.16 5.4 41.8 77 1.7 35
19:40 1023 30.21 852 25.16 5.4 41.7 77 1.7 35.1
19:45 1023 30.21 852 25.16 5.2 41.4 78 1.7 35.1
19:50 1023 30.21 852 25.16 5.2 41.3 78 1.6 34.9
19:55 1023 30.21 852 25.16 5 41.1 79 1.7 35
20:00 1023 30.21 852 25.16 4.9 40.8 81 1.9 35.5
20:05 1023 30.21 852 25.16 4.6 40.3 82 1.9 35.3
20:10 1023 30.21 852 25.16 4.5 40.1 83 1.8 35.3
20:15 1023 30.21 852 25.16 4.3 39.8 84 1.8 35.3
20:20 1023 30.21 852 25.16 4.2 39.5 83 1.5 34.8
20:25 1023 30.21 852 25.16 3.9 39 84 1.5 34.7
20:30 1023 30.21 852 25.16 3.7 38.6 81 0.7 33.3
20:35 1023 30.21 852 25.16 3.8 38.8 80 0.7 33.3
20:40 1023 30.21 852 25.16 3.6 38.5 77 0 32
20:45 1023 30.21 852 25.16 3.6 38.5 77 -0.1 31.9
20:50 1023 30.21 852 25.16 3.5 38.4 78 0 32
20:55 1023 30.21 852 25.16 3.3 38 78 -0.2 31.7
21:00 1023 30.21 852 25.16 3.1 37.5 80 0 32
21:05 1023 30.21 852 25.16 2.9 37.3 81 -0.1 31.9
21:10 1023 30.21 852 25.16 2.6 36.8 81 -0.3 31.5
21:15 1023 30.21 852 25.16 2.7 36.9 80 -0.4 31.3
21:20 1023 30.21 852 25.16 2.6 36.6 79 -0.7 30.8
21:25 1023 30.21 852 25.16 2.2 35.9 80 -0.9 30.4
21:30 1023 30.21 852 25.16 1.9 35.5 81 -1 30.2
21:35 1023 30.21 852 25.16 1.9 35.4 83 -0.7 30.7
21:40 1023 30.21 852 25.16 1.8 35.3 83 -0.8 30.6
21:45 1022 30.18 852 25.16 1.9 35.4 82 -0.8 30.6
21:50 1022 30.18 852 25.16 2.1 35.8 80 -1 30.2
21:55 1022 30.18 852 25.16 2.2 35.9 80 -1 30.2
22:00 1022 30.18 852 25.16 2.2 36 80 -0.9 30.4
22:05 1022 30.18 851 25.13 2.3 36.2 77 -1.3 29.7
22:10 1022 30.18 851 25.13 2.6 36.6 78 -1 30.3
22:15 1022 30.18 851 25.13 2.3 36.2 78 -1 30.1
22:20 1022 30.18 851 25.13 2.3 36.2 78 -1.1 30
22:25 1022 30.18 851 25.13 2.3 36.1 77 -1.3 29.6
22:30 1022 30.18 851 25.13 2.4 36.4 77 -1.2 29.9
22:35 1022 30.18 851 25.13 2.4 36.3 78 -1.1 30
22:40 1022 30.18 851 25.13 2.3 36.2 77 -1.3 29.7
22:45 1022 30.18 851 25.13 2.4 36.4 76 -1.3 29.6
22:50 1022 30.18 851 25.13 2.6 36.7 75 -1.3 29.6
22:55 1022 30.18 851 25.13 2.6 36.7 76 -1.3 29.7
23:00 1022 30.18 851 25.13 2.6 36.7 76 -1.2 29.8
23:05 1022 30.18 851 25.13 2.5 36.5 77 -1.2 29.9
23:10 1022 30.18 851 25.13 2.3 36.1 78 -1.2 29.9
23:15 1022 30.18 851 25.13 2.1 35.7 79 -1.1 30
23:20 1022 30.18 851 25.13 1.8 35.3 80 -1.2 29.9
23:25 1022 30.18 851 25.13 1.7 35.1 81 -1.3 29.7
23:30 1022 30.18 851 25.13 1.9 35.5 78 -1.5 29.3
23:35 1022 30.18 851 25.13 2.1 35.7 77 -1.5 29.3
23:40 1022 30.18 851 25.13 2.1 35.8 77 -1.5 29.3
23:45 1022 30.18 851 25.13 2.1 35.7 77 -1.5 29.2
23:50 1022 30.18 851 25.13 2.1 35.8 77 -1.4 29.4
23:55 1022 30.18 851 25.13 2 35.6 78 -1.4 29.5
24:00 1022 30.18 851 25.13 2 35.5 79 -1.4 29.6